Blue Star 1 — SWET — position and weather

sailwx.info

Track history (hours):
 
Tides and Currents Weather Stations Pressure Air Temp Water Temp Dewpoint Dewpoint Depression Visibility Wind Speed Wind Dir Waves Ship Positions

Blue Star 1

Last reported at 2016-May-26 17:33 UTC. Time now 2016-May-26 18:30 UTC.
Position N 37°50' E 023°37'.

Length 177 m; draft 6.5 m.

Type: Passenger vessel. MMSI: 239710000.

Date/timePositionNaut miles runAvg speedWind from/ knotsBaromVisibWave heightAir tempDewpointWater temp
2016-May-26 17:33N 37°50' E 023°37'7 6.6
2016-May-26 16:33N 37°56' E 023°38'0 0.0
2016-May-26 15:33N 37°56' E 023°38'0 0.0
2016-May-26 14:33N 37°56' E 023°38'0 0.0
2016-May-26 13:33N 37°56' E 023°38'0 0.0
2016-May-26 12:33N 37°56' E 023°38'0 0.0
2016-May-26 11:33N 37°56' E 023°38'0 0.0
2016-May-26 10:33N 37°56' E 023°38'0 0.0
2016-May-26 09:33N 37°56' E 023°38'0 0.0
2016-May-26 08:33N 37°56' E 023°38'0 0.0
2016-May-26 07:33N 37°56' E 023°38'0 0.0
2016-May-26 06:33N 37°56' E 023°38'0 0.0
2016-May-26 05:33N 37°56' E 023°38'0 0.0
2016-May-26 04:33N 37°56' E 023°38'0 0.1
2016-May-26 03:34N 37°56' E 023°38'1716.9
2016-May-26 02:33N 37°41' E 023°46'2519.8
2016-May-26 01:17N 37°45' E 024°17'24 0.9
2016-May-24 21:03N 37°59' E 024°42'918.5
2016-May-24 20:33N 37°54' E 024°32'1918.4
2016-May-24 19:32N 37°42' E 024°14'1717.5
2016-May-24 18:33N 37°38' E 023°53'1717.1
2016-May-24 17:33N 37°49' E 023°37'7 7.1
2016-May-24 16:33N 37°56' E 023°38'0 0.0
2016-May-24 15:33N 37°56' E 023°38'0 0.0
2016-May-24 14:33N 37°56' E 023°38'0 0.0
2016-May-24 13:33N 37°56' E 023°38'0 0.0
2016-May-24 12:33N 37°56' E 023°38'0 0.0
2016-May-24 11:34N 37°56' E 023°38'0 0.0
2016-May-24 10:33N 37°56' E 023°38'0 0.0
2016-May-24 09:33N 37°56' E 023°38'0 0.0
2016-May-24 08:33N 37°56' E 023°38'0 0.0
2016-May-24 07:33N 37°56' E 023°38'0 0.0
2016-May-24 06:33N 37°56' E 023°38'0 0.0
2016-May-24 05:33N 37°56' E 023°38'0 0.0
2016-May-24 04:33N 37°56' E 023°38'1010.3
2016-May-24 03:34N 37°47' E 023°42'2521.2
2016-May-24 02:24N 37°41' E 024°12'2125.7
2016-May-24 01:34N 37°55' E 024°33'10 0.4
2016-May-22 21:09N 38°01' E 024°44'1118.0
2016-May-22 20:33N 37°54' E 024°34'1918.5
2016-May-22 19:33N 37°43' E 024°15'1817.5
2016-May-22 18:33N 37°37' E 023°54'1817.7
2016-May-22 17:34N 37°49' E 023°38'8 7.6
2016-May-22 16:34N 37°56' E 023°38'0 0.0
2016-May-22 15:34N 37°56' E 023°38'0 0.0
2016-May-22 14:33N 37°56' E 023°38'0 0.3
2016-May-22 13:34N 37°56' E 023°38'0 0.0
2016-May-22 12:33N 37°56' E 023°38'0 0.0
2016-May-22 11:33N 37°56' E 023°38'0 0.0
2016-May-22 10:34N 37°56' E 023°38'0 0.0
2016-May-22 09:33N 37°56' E 023°38'0 0.0
2016-May-22 08:33N 37°56' E 023°38'0 0.0
2016-May-22 07:34N 37°56' E 023°38'0 0.0
2016-May-22 06:33N 37°56' E 023°38'0 0.0
2016-May-22 05:34N 37°56' E 023°38'0 0.0
2016-May-22 04:33N 37°56' E 023°38'0 0.0
2016-May-22 03:34N 37°56' E 023°38'0 0.0
2016-May-22 02:34N 37°56' E 023°38'0 0.0
2016-May-22 01:34N 37°56' E 023°38'0 0.0
2016-May-22 00:33N 37°56' E 023°38'0 0.0
2016-May-21 23:33N 37°56' E 023°38'0 0.0
2016-May-21 22:33N 37°56' E 023°38'0 0.0
2016-May-21 21:34N 37°56' E 023°38'0 0.0
2016-May-21 20:33N 37°56' E 023°38'0 0.0
2016-May-21 19:34N 37°56' E 023°38'0 0.0
2016-May-21 18:34N 37°56' E 023°38'0 0.0
2016-May-21 17:34N 37°56' E 023°38'0 0.0
2016-May-21 16:33N 37°56' E 023°38'0 0.0
2016-May-21 15:34N 37°56' E 023°38'0 0.0
2016-May-21 14:34N 37°56' E 023°38'0 0.0
2016-May-21 13:33N 37°56' E 023°38'0 0.0
2016-May-21 12:34N 37°56' E 023°38'0 0.0
2016-May-21 11:34N 37°56' E 023°38'0 0.0
2016-May-21 10:34N 37°56' E 023°38'0 0.0
2016-May-21 09:33N 37°56' E 023°38'0 0.0
2016-May-21 08:33N 37°56' E 023°38'0 0.0
2016-May-21 07:34N 37°56' E 023°38'0 0.0
2016-May-21 06:34N 37°56' E 023°38'0 0.0
2016-May-21 05:33N 37°56' E 023°38'0 0.0
2016-May-21 04:34N 37°56' E 023°38'0 0.0
2016-May-21 03:33N 37°56' E 023°38'1515.0
2016-May-21 02:33N 37°42' E 023°45'2519.4
2016-May-21 01:17N 37°44' E 024°16'24 0.8
2016-May-19 20:33N 37°58' E 024°39'2221.8
2016-May-19 19:33N 37°45' E 024°17'2019.5
2016-May-19 18:33N 37°37' E 023°55'1717.5
2016-May-19 17:33N 37°49' E 023°38'8 7.8
2016-May-19 16:33N 37°56' E 023°38'0 0.0
2016-May-19 15:33N 37°56' E 023°38'0 0.0
2016-May-19 14:33N 37°56' E 023°38'0 0.0
2016-May-19 13:33N 37°56' E 023°38'0 0.0
2016-May-19 12:33N 37°56' E 023°38'0 0.0
2016-May-19 11:33N 37°56' E 023°38'0 0.0
2016-May-19 10:33N 37°56' E 023°38'0 0.0
2016-May-19 09:33N 37°56' E 023°38'0 0.0
2016-May-19 08:33N 37°56' E 023°38'0 0.0
2016-May-19 07:33N 37°56' E 023°38'0 0.0
2016-May-19 06:33N 37°56' E 023°38'0 0.0
2016-May-19 05:33N 37°56' E 023°38'0 0.0
2016-May-19 04:33N 37°56' E 023°38'0 0.0
2016-May-19 03:33N 37°56' E 023°38'1414.1
2016-May-19 02:33N 37°43' E 023°44'2419.5
2016-May-19 01:19N 37°43' E 024°15'45 1.7
2016-May-17 22:03N 38°03' E 025°06'1019.4
2016-May-17 21:33N 38°02' E 024°54'1818.5
2016-May-17 20:34N 37°54' E 024°33'1918.8
2016-May-17 19:32N 37°42' E 024°14'1817.9
2016-May-17 18:33N 37°38' E 023°53'1717.5
2016-May-17 17:34N 37°50' E 023°37'6 6.1
2016-May-17 16:34N 37°56' E 023°38'0 0.0
2016-May-17 15:34N 37°56' E 023°38'0 0.0
2016-May-17 14:34N 37°56' E 023°38'0 0.0
2016-May-17 13:33N 37°56' E 023°38'0 0.0
2016-May-17 12:34N 37°56' E 023°38'0 0.0
2016-May-17 11:34N 37°56' E 023°38'0 0.0
2016-May-17 10:34N 37°56' E 023°38'0 0.0
2016-May-17 09:33N 37°56' E 023°38'0 0.0
2016-May-17 08:33N 37°56' E 023°38'0 0.0
2016-May-17 07:33N 37°56' E 023°38'0 0.0
2016-May-17 06:34N 37°56' E 023°38'0 0.0
2016-May-17 05:34N 37°56' E 023°38'0 0.0
2016-May-17 04:34N 37°56' E 023°38'10 9.6
2016-May-17 03:34N 37°47' E 023°41'2222.0
2016-May-17 02:33N 37°37' E 024°06'2625.5
2016-May-17 01:34N 37°54' E 024°31'3124.8
2016-May-17 00:19N 38°13' E 025°02'  
Track history (hours):
 
Tides and Currents Weather Stations Pressure Air Temp Water Temp Dewpoint Dewpoint Depression Visibility Wind Speed Wind Dir Waves Ship Positions

Blue Star 1

Last reported at 2016-May-26 17:33 UTC. Time now 2016-May-26 18:30 UTC.
Position N 37°50' E 023°37'.

Length 177 m; draft 6.5 m.

Type: Passenger vessel. MMSI: 239710000.

Date/timePositionNaut miles runAvg speedWind from/ knotsBaromVisibWave heightAir tempDewpointWater temp
2016-May-26 17:33N 37°50' E 023°37'7 6.6
2016-May-26 16:33N 37°56' E 023°38'0 0.0
2016-May-26 15:33N 37°56' E 023°38'0 0.0
2016-May-26 14:33N 37°56' E 023°38'0 0.0
2016-May-26 13:33N 37°56' E 023°38'0 0.0
2016-May-26 12:33N 37°56' E 023°38'0 0.0
2016-May-26 11:33N 37°56' E 023°38'0 0.0
2016-May-26 10:33N 37°56' E 023°38'0 0.0
2016-May-26 09:33N 37°56' E 023°38'0 0.0
2016-May-26 08:33N 37°56' E 023°38'0 0.0
2016-May-26 07:33N 37°56' E 023°38'0 0.0
2016-May-26 06:33N 37°56' E 023°38'0 0.0
2016-May-26 05:33N 37°56' E 023°38'0 0.0
2016-May-26 04:33N 37°56' E 023°38'0 0.1
2016-May-26 03:34N 37°56' E 023°38'1716.9
2016-May-26 02:33N 37°41' E 023°46'2519.8
2016-May-26 01:17N 37°45' E 024°17'24 0.9
2016-May-24 21:03N 37°59' E 024°42'918.5
2016-May-24 20:33N 37°54' E 024°32'1918.4
2016-May-24 19:32N 37°42' E 024°14'1717.5
2016-May-24 18:33N 37°38' E 023°53'1717.1
2016-May-24 17:33N 37°49' E 023°37'7 7.1
2016-May-24 16:33N 37°56' E 023°38'0 0.0
2016-May-24 15:33N 37°56' E 023°38'0 0.0
2016-May-24 14:33N 37°56' E 023°38'0 0.0
2016-May-24 13:33N 37°56' E 023°38'0 0.0
2016-May-24 12:33N 37°56' E 023°38'0 0.0
2016-May-24 11:34N 37°56' E 023°38'0 0.0
2016-May-24 10:33N 37°56' E 023°38'0 0.0
2016-May-24 09:33N 37°56' E 023°38'0 0.0
2016-May-24 08:33N 37°56' E 023°38'0 0.0
2016-May-24 07:33N 37°56' E 023°38'0 0.0
2016-May-24 06:33N 37°56' E 023°38'0 0.0
2016-May-24 05:33N 37°56' E 023°38'0 0.0
2016-May-24 04:33N 37°56' E 023°38'1010.3
2016-May-24 03:34N 37°47' E 023°42'2521.2
2016-May-24 02:24N 37°41' E 024°12'2125.7
2016-May-24 01:34N 37°55' E 024°33'10 0.4
2016-May-22 21:09N 38°01' E 024°44'1118.0
2016-May-22 20:33N 37°54' E 024°34'1918.5
2016-May-22 19:33N 37°43' E 024°15'1817.5
2016-May-22 18:33N 37°37' E 023°54'1817.7
2016-May-22 17:34N 37°49' E 023°38'8 7.6
2016-May-22 16:34N 37°56' E 023°38'0 0.0
2016-May-22 15:34N 37°56' E 023°38'0 0.0
2016-May-22 14:33N 37°56' E 023°38'0 0.3
2016-May-22 13:34N 37°56' E 023°38'0 0.0
2016-May-22 12:33N 37°56' E 023°38'0 0.0
2016-May-22 11:33N 37°56' E 023°38'0 0.0
2016-May-22 10:34N 37°56' E 023°38'0 0.0
2016-May-22 09:33N 37°56' E 023°38'0 0.0
2016-May-22 08:33N 37°56' E 023°38'0 0.0
2016-May-22 07:34N 37°56' E 023°38'0 0.0
2016-May-22 06:33N 37°56' E 023°38'0 0.0
2016-May-22 05:34N 37°56' E 023°38'0 0.0
2016-May-22 04:33N 37°56' E 023°38'0 0.0
2016-May-22 03:34N 37°56' E 023°38'0 0.0
2016-May-22 02:34N 37°56' E 023°38'0 0.0
2016-May-22 01:34N 37°56' E 023°38'0 0.0
2016-May-22 00:33N 37°56' E 023°38'0 0.0
2016-May-21 23:33N 37°56' E 023°38'0 0.0
2016-May-21 22:33N 37°56' E 023°38'0 0.0
2016-May-21 21:34N 37°56' E 023°38'0 0.0
2016-May-21 20:33N 37°56' E 023°38'0 0.0
2016-May-21 19:34N 37°56' E 023°38'0 0.0
2016-May-21 18:34N 37°56' E 023°38'0 0.0
2016-May-21 17:34N 37°56' E 023°38'0 0.0
2016-May-21 16:33N 37°56' E 023°38'0 0.0
2016-May-21 15:34N 37°56' E 023°38'0 0.0
2016-May-21 14:34N 37°56' E 023°38'0 0.0
2016-May-21 13:33N 37°56' E 023°38'0 0.0
2016-May-21 12:34N 37°56' E 023°38'0 0.0
2016-May-21 11:34N 37°56' E 023°38'0 0.0
2016-May-21 10:34N 37°56' E 023°38'0 0.0
2016-May-21 09:33N 37°56' E 023°38'0 0.0
2016-May-21 08:33N 37°56' E 023°38'0 0.0
2016-May-21 07:34N 37°56' E 023°38'0 0.0
2016-May-21 06:34N 37°56' E 023°38'0 0.0
2016-May-21 05:33N 37°56' E 023°38'0 0.0
2016-May-21 04:34N 37°56' E 023°38'0 0.0
2016-May-21 03:33N 37°56' E 023°38'1515.0
2016-May-21 02:33N 37°42' E 023°45'2519.4
2016-May-21 01:17N 37°44' E 024°16'24 0.8
2016-May-19 20:33N 37°58' E 024°39'2221.8
2016-May-19 19:33N 37°45' E 024°17'2019.5
2016-May-19 18:33N 37°37' E 023°55'1717.5
2016-May-19 17:33N 37°49' E 023°38'8 7.8
2016-May-19 16:33N 37°56' E 023°38'0 0.0
2016-May-19 15:33N 37°56' E 023°38'0 0.0
2016-May-19 14:33N 37°56' E 023°38'0 0.0
2016-May-19 13:33N 37°56' E 023°38'0 0.0
2016-May-19 12:33N 37°56' E 023°38'0 0.0
2016-May-19 11:33N 37°56' E 023°38'0 0.0
2016-May-19 10:33N 37°56' E 023°38'0 0.0
2016-May-19 09:33N 37°56' E 023°38'0 0.0
2016-May-19 08:33N 37°56' E 023°38'0 0.0
2016-May-19 07:33N 37°56' E 023°38'0 0.0
2016-May-19 06:33N 37°56' E 023°38'0 0.0
2016-May-19 05:33N 37°56' E 023°38'0 0.0
2016-May-19 04:33N 37°56' E 023°38'0 0.0
2016-May-19 03:33N 37°56' E 023°38'1414.1
2016-May-19 02:33N 37°43' E 023°44'2419.5
2016-May-19 01:19N 37°43' E 024°15'45 1.7
2016-May-17 22:03N 38°03' E 025°06'1019.4
2016-May-17 21:33N 38°02' E 024°54'1818.5
2016-May-17 20:34N 37°54' E 024°33'1918.8
2016-May-17 19:32N 37°42' E 024°14'1817.9
2016-May-17 18:33N 37°38' E 023°53'1717.5
2016-May-17 17:34N 37°50' E 023°37'6 6.1
2016-May-17 16:34N 37°56' E 023°38'0 0.0
2016-May-17 15:34N 37°56' E 023°38'0 0.0
2016-May-17 14:34N 37°56' E 023°38'0 0.0
2016-May-17 13:33N 37°56' E 023°38'0 0.0
2016-May-17 12:34N 37°56' E 023°38'0 0.0
2016-May-17 11:34N 37°56' E 023°38'0 0.0
2016-May-17 10:34N 37°56' E 023°38'0 0.0
2016-May-17 09:33N 37°56' E 023°38'0 0.0
2016-May-17 08:33N 37°56' E 023°38'0 0.0
2016-May-17 07:33N 37°56' E 023°38'0 0.0
2016-May-17 06:34N 37°56' E 023°38'0 0.0
2016-May-17 05:34N 37°56' E 023°38'0 0.0
2016-May-17 04:34N 37°56' E 023°38'10 9.6
2016-May-17 03:34N 37°47' E 023°41'2222.0
2016-May-17 02:33N 37°37' E 024°06'2625.5
2016-May-17 01:34N 37°54' E 024°31'3124.8
2016-May-17 00:19N 38°13' E 025°02'  

Dump ship's entire track history